Time;durP1;ratioP1;P1;durP2;ratioP2;P2;SDS_P1;SDS_P2;PMS_P1;PMS_P2;Temp;Humidity;BMP_temperature;BMP_pressure;BME280_temperature;BME280_humidity;BME280_pressure;Samples;Min_cycle;Max_cycle;Signal;HPM_P1;HPM_P2
2023/11/06 00:01:06;;;;;;;;;;;;;;;3.69;63.73;93639.16;5022274;28;20032;-72
2023/11/06 00:03:31;;;;;;;;;;;;;;;3.91;63.80;93647.13;5048840;28;19951;-72
2023/11/06 00:05:56;;;;;;;;;;;;;;;4.44;62.06;93635.50;5045546;28;20271;-73
2023/11/06 00:08:21;;;;;;;;;;;;;;;4.40;62.65;93640.34;5049367;28;19991;-72
2023/11/06 00:10:48;;;;;;;;;;;;;;;4.85;60.98;93639.28;5024031;28;19931;-73
2023/11/06 00:13:14;;;;;;;;;;;;;;;4.93;60.59;93644.41;5042657;28;19962;-73
2023/11/06 00:15:40;;;;;;;;;;;;;;;4.97;60.66;93644.88;5041684;28;19948;-73
2023/11/06 00:18:07;;;;;;;;;;;;;;;4.52;62.36;93640.63;5040654;28;19959;-73
2023/11/06 00:20:33;;;;;;;;;;;;;;;4.94;61.34;93648.69;5042418;28;19921;-73
2023/11/06 00:22:58;;;;;;;;;;;;;;;3.92;64.47;93654.00;5044231;28;19975;-73
2023/11/06 00:25:23;;;;;;;;;;;;;;;4.64;61.90;93650.66;5038260;28;19944;-73
2023/11/06 00:27:49;;;;;;;;;;;;;;;4.36;62.61;93651.44;5040363;28;20037;-72
2023/11/06 00:30:14;;;;;;;;;;;;;;;4.11;63.47;93647.31;5040650;28;19940;-70
2023/11/06 00:32:39;;;;;;;;;;;;;;;4.14;63.19;93651.41;5041522;28;19939;-71
2023/11/06 00:35:05;;;;;;;;;;;;;;;4.23;63.22;93663.47;5038344;28;20601;-70
2023/11/06 00:37:30;;;;;;;;;;;;;;;3.36;66.61;93657.91;5041136;28;20041;-72
2023/11/06 00:39:55;;;;;;;;;;;;;;;4.06;64.61;93660.22;5040896;28;20092;-71
2023/11/06 00:42:20;;;;;;;;;;;;;;;3.80;65.35;93666.81;5042255;28;19941;-73
2023/11/06 00:44:46;;;;;;;;;;;;;;;3.91;64.75;93673.44;5038811;28;19953;-72
2023/11/06 00:47:11;;;;;;;;;;;;;;;4.41;63.24;93673.56;5044766;28;20693;-72
2023/11/06 00:49:37;;;;;;;;;;;;;;;4.89;61.75;93677.44;5041895;28;20636;-70
2023/11/06 00:52:02;;;;;;;;;;;;;;;4.50;62.87;93686.63;5042832;28;19934;-72
2023/11/06 00:54:28;;;;;;;;;;;;;;;4.38;63.13;93687.13;5038571;28;20028;-71
2023/11/06 00:56:53;;;;;;;;;;;;;;;4.10;63.54;93687.84;5047054;28;20293;-71
2023/11/06 00:59:18;;;;;;;;;;;;;;;3.74;65.49;93681.53;5040913;28;19990;-71
2023/11/06 01:01:43;;;;;;;;;;;;;;;4.10;64.28;93687.00;5042311;28;19958;-72
2023/11/06 01:04:09;;;;;;;;;;;;;;;3.96;64.79;93691.31;5037257;28;20393;-72
2023/11/06 01:06:35;;;;;;;;;;;;;;;4.31;63.34;93694.97;5045306;28;19963;-71
2023/11/06 01:09:00;;;;;;;;;;;;;;;4.51;62.87;93693.53;5043170;28;20427;-71
2023/11/06 01:11:25;;;;;;;;;;;;;;;4.00;64.84;93697.84;5046486;28;19955;-72
2023/11/06 01:13:51;;;;;;;;;;;;;;;3.93;64.63;93697.75;5037776;28;20389;-72
2023/11/06 01:16:19;;;;;;;;;;;;;;;3.74;64.77;93702.56;5038810;28;19998;-73
2023/11/06 01:18:47;;;;;;;;;;;;;;;3.54;65.66;93711.00;5036765;28;19999;-72
2023/11/06 01:21:12;;;;;;;;;;;;;;;3.66;65.12;93707.94;5038715;28;19982;-72
2023/11/06 01:23:38;;;;;;;;;;;;;;;3.66;65.06;93710.56;5038012;28;20581;-72
2023/11/06 01:26:03;;;;;;;;;;;;;;;3.77;65.24;93710.13;5040159;28;19958;-73
2023/11/06 01:28:28;;;;;;;;;;;;;;;4.04;65.13;93702.56;5041648;28;19925;-72
2023/11/06 01:30:54;;;;;;;;;;;;;;;4.38;63.38;93715.28;5043648;28;19929;-72
2023/11/06 01:33:19;;;;;;;;;;;;;;;4.71;62.05;93710.38;5044591;28;19983;-71
2023/11/06 01:35:44;;;;;;;;;;;;;;;4.40;62.46;93710.66;5046188;28;19936;-72
2023/11/06 01:38:09;;;;;;;;;;;;;;;4.41;62.38;93720.19;5046365;28;20185;-72
2023/11/06 01:40:35;;;;;;;;;;;;;;;4.49;62.34;93712.16;5045882;28;20377;-72
2023/11/06 01:43:05;;;;;;;;;;;;;;;4.45;62.72;93718.81;5045788;28;19925;-72
2023/11/06 01:45:31;;;;;;;;;;;;;;;4.40;63.21;93714.13;5048455;28;19928;-72
2023/11/06 01:47:56;;;;;;;;;;;;;;;4.08;63.41;93716.16;5050660;28;19920;-73
2023/11/06 01:50:21;;;;;;;;;;;;;;;4.43;62.84;93721.63;5044051;28;20480;-72
2023/11/06 01:52:46;;;;;;;;;;;;;;;4.80;61.78;93718.94;5035689;28;20511;-72
2023/11/06 01:55:12;;;;;;;;;;;;;;;3.28;65.15;93732.47;5037594;28;19924;-72
2023/11/06 01:57:38;;;;;;;;;;;;;;;4.04;63.38;93715.72;5039445;28;20030;-73
2023/11/06 02:00:05;;;;;;;;;;;;;;;4.70;62.48;93719.25;5039889;28;19955;-72
2023/11/06 02:02:30;;;;;;;;;;;;;;;5.29;60.26;93711.28;5038323;28;19921;-73
2023/11/06 02:04:55;;;;;;;;;;;;;;;4.91;61.32;93722.94;5041893;28;19920;-72
2023/11/06 02:07:20;;;;;;;;;;;;;;;5.00;60.86;93734.13;5038389;28;19925;-72
2023/11/06 02:09:46;;;;;;;;;;;;;;;4.77;61.91;93734.34;5042370;28;19921;-73
2023/11/06 02:12:11;;;;;;;;;;;;;;;3.46;65.38;93752.38;5041947;28;19916;-73
2023/11/06 02:14:52;;;;;;;;;;;;;;;4.16;64.72;93744.22;5041761;28;20386;-72
2023/11/06 02:17:17;;;;;;;;;;;;;;;4.14;63.83;93746.22;5041858;28;20485;-72
2023/11/06 02:19:42;;;;;;;;;;;;;;;4.36;63.49;93755.00;5043958;28;19925;-72
2023/11/06 02:22:09;;;;;;;;;;;;;;;4.16;63.62;93766.13;5041415;28;19925;-72
2023/11/06 02:24:35;;;;;;;;;;;;;;;4.15;63.30;93763.66;5043048;28;20012;-73
2023/11/06 02:27:00;;;;;;;;;;;;;;;4.12;64.49;93750.84;5048257;28;20217;-72
2023/11/06 02:29:25;;;;;;;;;;;;;;;4.65;61.76;93760.38;5045136;28;19928;-72
2023/11/06 02:31:50;;;;;;;;;;;;;;;4.50;62.80;93773.59;5043085;28;20393;-73
2023/11/06 02:34:16;;;;;;;;;;;;;;;4.12;64.01;93769.28;5052819;28;19981;-72
2023/11/06 02:36:41;;;;;;;;;;;;;;;3.90;64.03;93772.66;5049208;28;19921;-73
2023/11/06 02:39:06;;;;;;;;;;;;;;;3.56;65.13;93779.25;5042940;28;19968;-72
2023/11/06 02:41:32;;;;;;;;;;;;;;;3.68;66.00;93772.56;5042927;28;19975;-73
2023/11/06 02:43:57;;;;;;;;;;;;;;;4.30;63.60;93787.34;5041230;28;19955;-73
2023/11/06 02:46:22;;;;;;;;;;;;;;;4.15;63.94;93766.31;5040572;28;20004;-73
2023/11/06 02:48:47;;;;;;;;;;;;;;;4.05;64.15;93774.50;5042315;28;20006;-73
2023/11/06 02:51:12;;;;;;;;;;;;;;;3.51;66.10;93782.41;5044542;28;19925;-73
2023/11/06 02:53:38;;;;;;;;;;;;;;;3.72;64.90;93777.47;5043041;28;19958;-72
2023/11/06 02:56:03;;;;;;;;;;;;;;;3.62;66.16;93781.19;5045665;28;19982;-73
2023/11/06 02:58:29;;;;;;;;;;;;;;;4.03;64.24;93784.38;5046165;28;20422;-72
2023/11/06 03:00:54;;;;;;;;;;;;;;;4.50;62.58;93784.13;5044606;28;20208;-72
2023/11/06 03:03:20;;;;;;;;;;;;;;;4.33;63.09;93794.91;5048236;28;20489;-72
2023/11/06 03:05:45;;;;;;;;;;;;;;;3.91;64.33;93792.72;5028216;28;19982;-73
2023/11/06 03:08:10;;;;;;;;;;;;;;;4.58;62.01;93791.94;5044528;28;19951;-72
2023/11/06 03:10:35;;;;;;;;;;;;;;;4.23;63.65;93804.88;5045417;28;19932;-72
2023/11/06 03:13:01;;;;;;;;;;;;;;;4.32;63.91;93811.72;5042436;28;19960;-72
2023/11/06 03:15:26;;;;;;;;;;;;;;;3.53;67.19;93840.97;5040870;28;19925;-72
2023/11/06 03:17:51;;;;;;;;;;;;;;;3.03;69.18;93816.84;5040087;28;19921;-72
2023/11/06 03:20:16;;;;;;;;;;;;;;;3.50;67.84;93827.34;5040387;28;20055;-72
2023/11/06 03:22:42;;;;;;;;;;;;;;;2.83;70.29;93830.44;5041016;28;20571;-72
2023/11/06 03:25:09;;;;;;;;;;;;;;;1.93;72.79;93827.19;5045191;28;19935;-72
2023/11/06 03:27:34;;;;;;;;;;;;;;;2.53;70.94;93838.13;5043833;28;19955;-72
2023/11/06 03:29:59;;;;;;;;;;;;;;;2.91;70.22;93833.00;5041297;28;19959;-72
2023/11/06 03:32:24;;;;;;;;;;;;;;;2.60;71.54;93836.47;5046390;28;20045;-72
2023/11/06 03:34:50;;;;;;;;;;;;;;;2.42;71.69;93835.88;5043893;28;20018;-71
2023/11/06 03:37:15;;;;;;;;;;;;;;;3.11;69.71;93840.44;5029262;28;19962;-72
2023/11/06 03:39:42;;;;;;;;;;;;;;;3.14;67.97;93840.06;5043123;28;20053;-72
2023/11/06 03:42:07;;;;;;;;;;;;;;;2.86;69.46;93845.03;5051277;28;19921;-72
2023/11/06 03:44:32;;;;;;;;;;;;;;;3.24;68.72;93852.19;5039410;28;20388;-72
2023/11/06 03:46:57;;;;;;;;;;;;;;;3.00;68.90;93861.88;5048213;28;19966;-72
2023/11/06 03:49:23;;;;;;;;;;;;;;;3.13;69.13;93858.66;5047886;28;20476;-72
2023/11/06 03:51:48;;;;;;;;;;;;;;;3.06;69.69;93868.25;5041794;28;19952;-72
2023/11/06 03:54:14;;;;;;;;;;;;;;;2.87;71.16;93873.78;5046685;28;19959;-72
2023/11/06 03:56:39;;;;;;;;;;;;;;;3.36;68.74;93871.81;5049449;28;19917;-73
2023/11/06 03:59:04;;;;;;;;;;;;;;;3.23;68.67;93869.75;5050872;28;20566;-72
2023/11/06 04:01:34;;;;;;;;;;;;;;;3.02;69.00;93879.09;5046514;28;20055;-72
2023/11/06 04:04:00;;;;;;;;;;;;;;;3.24;68.72;93881.09;5042594;28;19945;-71
2023/11/06 04:06:26;;;;;;;;;;;;;;;3.08;69.46;93882.84;5041600;28;19995;-72
2023/11/06 04:08:51;;;;;;;;;;;;;;;3.35;68.22;93879.88;5039765;28;20608;-72
2023/11/06 04:11:16;;;;;;;;;;;;;;;3.29;67.90;93886.66;5040510;28;19982;-72
2023/11/06 04:13:42;;;;;;;;;;;;;;;2.96;70.10;93889.50;5047748;28;19958;-71
2023/11/06 04:16:07;;;;;;;;;;;;;;;2.78;69.71;93885.31;5040761;28;19948;-72
2023/11/06 04:18:33;;;;;;;;;;;;;;;2.69;70.63;93888.97;5048630;28;19951;-71
2023/11/06 04:20:58;;;;;;;;;;;;;;;3.22;68.79;93896.22;5039517;28;19931;-72
2023/11/06 04:23:24;;;;;;;;;;;;;;;2.97;69.71;93896.38;5046772;28;19956;-72
2023/11/06 04:25:49;;;;;;;;;;;;;;;3.29;68.08;93894.53;5045947;28;19958;-72
2023/11/06 04:28:15;;;;;;;;;;;;;;;2.90;68.51;93904.16;5050611;28;20054;-72
2023/11/06 04:30:41;;;;;;;;;;;;;;;2.96;69.92;93908.72;5046313;28;20400;-72
2023/11/06 04:33:06;;;;;;;;;;;;;;;3.12;68.27;93902.53;5047066;28;19963;-73
2023/11/06 04:35:31;;;;;;;;;;;;;;;3.14;68.32;93910.28;5039523;28;20408;-71
2023/11/06 04:37:56;;;;;;;;;;;;;;;2.85;68.55;93916.97;5040299;28;20531;-72
2023/11/06 04:40:23;;;;;;;;;;;;;;;3.20;67.69;93930.59;5044531;28;20551;-72
2023/11/06 04:42:49;;;;;;;;;;;;;;;2.55;70.59;93922.84;5041559;28;19928;-71
2023/11/06 04:45:14;;;;;;;;;;;;;;;3.23;67.47;93918.94;5036268;28;20560;-71
2023/11/06 04:47:40;;;;;;;;;;;;;;;2.96;68.50;93926.31;5047023;28;19947;-72
2023/11/06 04:50:07;;;;;;;;;;;;;;;2.86;68.62;93927.31;5042204;28;20016;-71
2023/11/06 04:52:32;;;;;;;;;;;;;;;2.45;70.58;93938.00;5042958;28;19989;-72
2023/11/06 04:54:57;;;;;;;;;;;;;;;2.83;69.07;93937.38;5042950;28;19958;-71
2023/11/06 04:57:23;;;;;;;;;;;;;;;2.98;68.41;93935.66;5042883;28;20287;-72
2023/11/06 04:59:48;;;;;;;;;;;;;;;3.05;68.68;93941.03;5041608;28;19962;-72
2023/11/06 05:02:13;;;;;;;;;;;;;;;2.25;71.08;93943.63;5049527;28;19957;-71
2023/11/06 05:04:42;;;;;;;;;;;;;;;2.23;71.56;93956.09;5048254;28;20024;-72
2023/11/06 05:07:07;;;;;;;;;;;;;;;2.37;70.58;93959.84;5048738;28;19963;-73
2023/11/06 05:09:32;;;;;;;;;;;;;;;2.56;70.63;93956.03;5035695;28;20294;-73
2023/11/06 05:11:57;;;;;;;;;;;;;;;2.52;69.67;93960.00;5046833;28;19952;-72
2023/11/06 05:14:23;;;;;;;;;;;;;;;2.58;68.92;93969.00;5046071;28;19960;-72
2023/11/06 05:16:48;;;;;;;;;;;;;;;2.75;68.86;93957.44;5040621;28;19963;-73
2023/11/06 05:19:13;;;;;;;;;;;;;;;2.89;67.51;93969.03;5040266;28;19967;-73
2023/11/06 05:21:39;;;;;;;;;;;;;;;2.94;68.83;93978.22;5039329;28;19924;-72
2023/11/06 05:24:05;;;;;;;;;;;;;;;2.57;68.79;93973.44;5042080;28;19944;-73
2023/11/06 05:26:30;;;;;;;;;;;;;;;2.75;68.83;93988.16;5041537;28;20426;-73
2023/11/06 05:28:55;;;;;;;;;;;;;;;2.71;67.83;93978.97;5041269;28;19997;-73
2023/11/06 05:31:21;;;;;;;;;;;;;;;2.83;68.41;93979.44;5042026;28;19962;-73
2023/11/06 05:33:46;;;;;;;;;;;;;;;2.74;68.64;93986.50;5044114;28;19953;-73
2023/11/06 05:36:12;;;;;;;;;;;;;;;2.50;68.72;93996.94;5042887;28;19964;-73
2023/11/06 05:38:37;;;;;;;;;;;;;;;2.73;68.78;94000.66;5045515;28;19962;-73
2023/11/06 05:41:04;;;;;;;;;;;;;;;2.36;69.58;94008.13;5043330;28;20718;-72
2023/11/06 05:43:29;;;;;;;;;;;;;;;2.82;67.61;94010.13;5044551;28;19949;-73
2023/11/06 05:45:54;;;;;;;;;;;;;;;3.11;67.12;94007.91;5038932;28;19981;-72
2023/11/06 05:48:20;;;;;;;;;;;;;;;2.70;67.66;94012.31;5046376;28;19945;-72
2023/11/06 05:50:45;;;;;;;;;;;;;;;3.08;66.67;94022.22;5043952;28;19976;-73
2023/11/06 05:53:10;;;;;;;;;;;;;;;2.75;67.54;94012.63;5047277;28;19921;-73
2023/11/06 05:55:35;;;;;;;;;;;;;;;2.97;65.84;94015.53;5044622;28;19959;-72
2023/11/06 05:58:01;;;;;;;;;;;;;;;3.17;65.79;94020.38;5055541;28;19957;-73
2023/11/06 06:00:26;;;;;;;;;;;;;;;3.26;65.56;94026.41;5043175;28;19953;-73
2023/11/06 06:02:51;;;;;;;;;;;;;;;2.49;67.75;94029.44;5048701;28;20319;-73
2023/11/06 06:05:17;;;;;;;;;;;;;;;3.07;66.58;94023.22;5027386;28;19997;-73
2023/11/06 06:07:43;;;;;;;;;;;;;;;3.66;63.70;94024.59;5043561;28;19991;-73
2023/11/06 06:10:09;;;;;;;;;;;;;;;2.82;65.25;94036.44;5041966;28;20469;-73
2023/11/06 06:12:34;;;;;;;;;;;;;;;3.32;64.30;94041.53;5031849;28;20057;-73
2023/11/06 06:15:01;;;;;;;;;;;;;;;3.20;64.43;94053.41;5044120;28;20057;-73
2023/11/06 06:17:27;;;;;;;;;;;;;;;3.41;64.09;94058.91;5044459;28;19924;-71
2023/11/06 06:19:52;;;;;;;;;;;;;;;3.43;63.85;94051.66;5047704;28;19935;-70
2023/11/06 06:22:18;;;;;;;;;;;;;;;3.09;64.71;94055.41;5044033;28;19955;-68
2023/11/06 06:24:44;;;;;;;;;;;;;;;2.33;66.53;94064.44;5043058;28;19932;-70
2023/11/06 06:27:09;;;;;;;;;;;;;;;3.03;65.10;94066.63;5046766;28;19952;-71
2023/11/06 06:29:35;;;;;;;;;;;;;;;3.24;64.24;94075.75;5044600;28;20292;-70
2023/11/06 06:32:00;;;;;;;;;;;;;;;3.14;64.46;94076.75;5050416;28;19939;-72
2023/11/06 06:34:25;;;;;;;;;;;;;;;3.17;63.85;94073.78;5051020;28;19960;-71
2023/11/06 06:36:50;;;;;;;;;;;;;;;3.23;63.85;94074.13;5043819;28;19938;-72
2023/11/06 06:39:16;;;;;;;;;;;;;;;3.12;63.37;94080.53;5043259;28;19963;-71
2023/11/06 06:41:41;;;;;;;;;;;;;;;2.97;63.90;94086.53;5053945;28;19959;-72
2023/11/06 06:44:06;;;;;;;;;;;;;;;3.14;63.85;94095.16;5044604;28;19958;-71
2023/11/06 06:46:32;;;;;;;;;;;;;;;3.10;64.35;94101.75;5051706;28;20546;-70
2023/11/06 06:48:57;;;;;;;;;;;;;;;3.00;64.19;94104.56;5054100;28;19932;-72
2023/11/06 06:51:22;;;;;;;;;;;;;;;3.40;63.65;94102.00;5046945;28;19956;-72
2023/11/06 06:53:49;;;;;;;;;;;;;;;3.79;62.28;94104.81;5043583;28;19964;-72
2023/11/06 06:56:14;;;;;;;;;;;;;;;3.25;63.72;94114.22;5048586;28;20394;-70
2023/11/06 06:58:40;;;;;;;;;;;;;;;3.15;64.61;94109.97;5045483;28;19958;-72
2023/11/06 07:01:07;;;;;;;;;;;;;;;3.14;64.05;94118.03;5049772;28;19928;-70
2023/11/06 07:03:35;;;;;;;;;;;;;;;3.40;63.48;94115.16;5042859;28;19960;-71
2023/11/06 07:06:00;;;;;;;;;;;;;;;2.70;64.55;94127.13;5046113;28;19924;-72
2023/11/06 07:08:25;;;;;;;;;;;;;;;3.53;62.77;94117.28;5042238;28;19927;-71
2023/11/06 07:10:51;;;;;;;;;;;;;;;3.40;63.42;94130.94;5044855;28;20007;-71
2023/11/06 07:13:16;;;;;;;;;;;;;;;3.26;63.43;94129.00;5051116;28;19955;-71
2023/11/06 07:15:42;;;;;;;;;;;;;;;2.93;63.81;94127.28;5047848;28;19952;-71
2023/11/06 07:18:07;;;;;;;;;;;;;;;3.48;62.90;94142.47;5049260;28;19988;-71
2023/11/06 07:20:33;;;;;;;;;;;;;;;3.37;63.14;94148.88;5049187;28;20525;-71
2023/11/06 07:23:00;;;;;;;;;;;;;;;3.34;63.49;94152.69;5046163;28;19967;-71
2023/11/06 07:25:25;;;;;;;;;;;;;;;3.78;61.83;94153.22;5043375;28;19963;-71
2023/11/06 07:27:50;;;;;;;;;;;;;;;3.83;62.59;94157.94;5053731;28;19946;-71
2023/11/06 07:30:15;;;;;;;;;;;;;;;3.33;63.72;94158.91;5047293;28;19959;-71
2023/11/06 07:32:41;;;;;;;;;;;;;;;3.65;62.03;94167.75;5050146;28;19921;-71
2023/11/06 07:35:06;;;;;;;;;;;;;;;3.45;63.78;94166.47;5046529;28;20072;-71
2023/11/06 07:37:32;;;;;;;;;;;;;;;3.97;62.13;94173.00;5048764;28;19939;-73
2023/11/06 07:39:57;;;;;;;;;;;;;;;4.07;60.79;94173.63;5049245;28;19962;-71
2023/11/06 07:42:22;;;;;;;;;;;;;;;3.17;65.01;94178.19;5048616;28;19958;-72
2023/11/06 07:44:48;;;;;;;;;;;;;;;2.89;64.33;94181.16;5048296;28;19931;-72
2023/11/06 07:47:13;;;;;;;;;;;;;;;4.28;61.11;94181.91;5048861;28;19949;-71
2023/11/06 07:49:38;;;;;;;;;;;;;;;2.15;68.76;94193.25;5048157;28;19974;-72
2023/11/06 07:52:09;;;;;;;;;;;;;;;2.23;68.17;94197.69;5044832;28;19931;-72
2023/11/06 07:54:37;;;;;;;;;;;;;;;2.51;66.80;94189.53;5044449;28;19977;-72
2023/11/06 07:57:02;;;;;;;;;;;;;;;3.23;65.45;94187.22;5045627;28;20580;-70
2023/11/06 07:59:27;;;;;;;;;;;;;;;4.03;62.23;94201.31;5046164;28;20050;-71
2023/11/06 08:01:53;;;;;;;;;;;;;;;3.82;61.70;94188.72;5049039;28;19947;-72
2023/11/06 08:04:18;;;;;;;;;;;;;;;4.35;60.97;94201.28;5047374;28;19938;-72
2023/11/06 08:06:43;;;;;;;;;;;;;;;3.98;61.16;94194.91;5048405;28;20061;-71
2023/11/06 08:09:09;;;;;;;;;;;;;;;3.27;62.47;94199.84;5049115;28;19921;-72
2023/11/06 08:11:35;;;;;;;;;;;;;;;4.40;59.96;94208.69;5045391;28;19950;-72
2023/11/06 08:14:01;;;;;;;;;;;;;;;3.67;60.83;94222.81;5047633;28;19928;-72
2023/11/06 08:16:30;;;;;;;;;;;;;;;3.75;60.86;94212.28;5048010;28;19920;-71
2023/11/06 08:18:55;;;;;;;;;;;;;;;4.52;59.13;94209.94;5047085;28;19936;-72
2023/11/06 08:21:21;;;;;;;;;;;;;;;3.72;59.76;94217.88;5046623;28;19954;-70
2023/11/06 08:23:46;;;;;;;;;;;;;;;4.01;59.51;94215.66;5039610;28;19955;-72
2023/11/06 08:26:11;;;;;;;;;;;;;;;4.49;58.73;94220.81;5045088;28;20014;-70
2023/11/06 08:28:36;;;;;;;;;;;;;;;4.45;58.54;94225.63;5046066;28;19997;-73
2023/11/06 08:31:04;;;;;;;;;;;;;;;5.37;56.20;94227.59;5046486;28;20173;-71
2023/11/06 08:33:29;;;;;;;;;;;;;;;5.00;57.58;94235.28;5048641;28;20031;-72
2023/11/06 08:35:54;;;;;;;;;;;;;;;4.36;58.41;94247.75;5046836;28;20049;-72
2023/11/06 08:38:20;;;;;;;;;;;;;;;5.01;56.17;94244.03;5047478;28;19986;-71
2023/11/06 08:40:47;;;;;;;;;;;;;;;4.63;58.62;94239.53;5046222;28;21639;-71
2023/11/06 08:43:12;;;;;;;;;;;;;;;5.32;56.58;94254.53;5045093;28;20329;-72
2023/11/06 08:45:37;;;;;;;;;;;;;;;4.59;56.97;94254.84;5042920;28;19955;-72
2023/11/06 08:48:04;;;;;;;;;;;;;;;4.27;58.91;94268.06;5048770;28;19912;-71
2023/11/06 08:50:29;;;;;;;;;;;;;;;4.04;59.54;94254.78;5045427;28;19956;-72
2023/11/06 08:52:54;;;;;;;;;;;;;;;4.84;57.70;94260.78;5043855;28;19966;-70
2023/11/06 08:55:20;;;;;;;;;;;;;;;4.44;57.19;94247.72;5043743;28;19978;-70
2023/11/06 08:57:45;;;;;;;;;;;;;;;4.56;58.13;94257.88;5041103;28;19920;-70
2023/11/06 09:00:11;;;;;;;;;;;;;;;4.32;57.82;94265.72;5043799;28;19933;-71
2023/11/06 09:02:36;;;;;;;;;;;;;;;4.94;56.52;94276.38;5045978;28;19931;-71
2023/11/06 09:05:03;;;;;;;;;;;;;;;4.59;57.27;94262.75;5044312;28;19997;-72
2023/11/06 09:07:28;;;;;;;;;;;;;;;4.87;56.97;94288.66;5043208;28;20062;-72
2023/11/06 09:09:53;;;;;;;;;;;;;;;4.09;57.58;94280.63;5044655;28;20003;-72
2023/11/06 09:12:19;;;;;;;;;;;;;;;4.85;55.84;94269.53;5047281;28;20024;-70
2023/11/06 09:14:44;;;;;;;;;;;;;;;5.61;54.61;94273.22;5044838;28;19987;-70
2023/11/06 09:17:10;;;;;;;;;;;;;;;5.05;56.15;94292.81;5045758;28;19943;-70
2023/11/06 09:19:35;;;;;;;;;;;;;;;4.20;57.00;94303.97;5046354;28;19973;-71
2023/11/06 09:22:00;;;;;;;;;;;;;;;4.96;56.17;94289.41;5042206;28;20475;-70
2023/11/06 09:24:28;;;;;;;;;;;;;;;4.91;55.86;94286.47;5045203;28;19933;-71
2023/11/06 09:26:54;;;;;;;;;;;;;;;4.64;56.04;94296.53;5044747;28;19996;-70
2023/11/06 09:29:19;;;;;;;;;;;;;;;4.71;56.14;94302.75;5044352;28;19951;-71
2023/11/06 09:31:45;;;;;;;;;;;;;;;3.91;58.83;94298.28;5044722;28;19946;-71
2023/11/06 09:34:10;;;;;;;;;;;;;;;4.50;58.14;94295.44;5044563;28;20476;-70
2023/11/06 09:36:36;;;;;;;;;;;;;;;5.01;55.79;94305.53;5047153;28;19944;-72
2023/11/06 09:39:01;;;;;;;;;;;;;;;4.21;58.51;94302.16;5047782;28;19924;-73
2023/11/06 09:41:26;;;;;;;;;;;;;;;4.25;57.08;94309.53;5048401;28;19920;-74
2023/11/06 09:43:52;;;;;;;;;;;;;;;4.28;57.45;94318.91;5046069;28;19920;-72
2023/11/06 09:46:18;;;;;;;;;;;;;;;4.22;58.42;94307.25;5045763;28;19960;-72
2023/11/06 09:48:43;;;;;;;;;;;;;;;4.07;57.95;94305.34;5044971;28;19946;-72
2023/11/06 09:51:12;;;;;;;;;;;;;;;4.57;57.07;94306.94;5045577;28;20591;-72
2023/11/06 09:53:40;;;;;;;;;;;;;;;4.35;57.39;94316.44;5046025;28;19928;-72
2023/11/06 09:56:06;;;;;;;;;;;;;;;5.59;54.52;94309.56;5046030;28;20390;-72
2023/11/06 09:58:32;;;;;;;;;;;;;;;5.42;54.65;94322.09;5045209;28;20390;-73
2023/11/06 10:00:57;;;;;;;;;;;;;;;5.72;53.60;94315.06;5040134;28;19955;-72
2023/11/06 10:03:23;;;;;;;;;;;;;;;5.58;53.67;94331.72;5040739;28;19920;-73
2023/11/06 10:05:49;;;;;;;;;;;;;;;5.20;55.72;94309.53;5042445;28;20411;-73
2023/11/06 10:08:26;;;;;;;;;;;;;;;5.62;53.80;94333.00;5049696;28;19925;-73
2023/11/06 10:10:56;;;;;;;;;;;;;;;6.18;52.21;94308.00;5040439;28;19932;-73
2023/11/06 10:13:21;;;;;;;;;;;;;;;4.73;54.21;94315.75;5044640;28;19947;-72
2023/11/06 10:15:46;;;;;;;;;;;;;;;5.33;54.52;94324.78;5044988;28;19929;-72
2023/11/06 10:18:12;;;;;;;;;;;;;;;5.79;53.37;94332.84;5044530;28;19936;-73
2023/11/06 10:20:41;;;;;;;;;;;;;;;6.52;51.65;94310.28;5044121;28;20022;-72
2023/11/06 10:23:07;;;;;;;;;;;;;;;5.90;52.44;94332.41;5042016;28;19959;-72
2023/11/06 10:25:32;;;;;;;;;;;;;;;5.77;52.52;94334.81;5046748;28;19940;-72
2023/11/06 10:27:57;;;;;;;;;;;;;;;5.77;53.86;94317.16;5044875;28;19917;-72
2023/11/06 10:30:23;;;;;;;;;;;;;;;6.10;53.84;94324.78;5043437;28;19939;-72
2023/11/06 10:32:48;;;;;;;;;;;;;;;6.00;53.04;94329.50;5041236;28;20457;-73
2023/11/06 10:35:14;;;;;;;;;;;;;;;5.55;54.07;94324.94;5049166;28;19978;-72
2023/11/06 10:37:41;;;;;;;;;;;;;;;4.07;57.98;94350.09;5047238;28;20579;-73
2023/11/06 10:40:07;;;;;;;;;;;;;;;5.60;54.85;94337.63;5046081;28;19982;-73
2023/11/06 10:42:33;;;;;;;;;;;;;;;5.02;56.81;94327.44;5049963;28;19957;-73
2023/11/06 10:44:59;;;;;;;;;;;;;;;5.39;54.77;94317.16;5046379;28;19942;-73
2023/11/06 10:47:34;;;;;;;;;;;;;;;5.74;53.44;94325.44;5047976;28;20385;-73
2023/11/06 10:50:09;;;;;;;;;;;;;;;4.59;56.46;94336.56;5046805;28;20028;-73
2023/11/06 10:52:34;;;;;;;;;;;;;;;6.11;53.21;94323.75;5047473;28;20044;-73
2023/11/06 10:55:02;;;;;;;;;;;;;;;6.17;52.83;94329.31;5049016;28;20322;-72
2023/11/06 10:57:33;;;;;;;;;;;;;;;5.96;52.23;94333.50;5048956;28;19959;-73
2023/11/06 11:00:00;;;;;;;;;;;;;;;6.29;52.56;94317.28;5047373;28;19966;-73
2023/11/06 11:02:31;;;;;;;;;;;;;;;5.43;54.48;94310.53;5050039;28;19931;-72
2023/11/06 11:04:57;;;;;;;;;;;;;;;6.60;51.99;94297.75;5049351;28;19932;-72
2023/11/06 11:07:22;;;;;;;;;;;;;;;5.89;52.53;94320.19;5052057;28;19967;-72
2023/11/06 11:09:49;;;;;;;;;;;;;;;6.69;50.33;94313.53;5047492;28;19921;-72
2023/11/06 11:12:14;;;;;;;;;;;;;;;7.34;50.15;94302.19;5049262;28;19916;-72
2023/11/06 11:14:39;;;;;;;;;;;;;;;6.84;49.84;94309.00;5046515;28;19928;-72
2023/11/06 11:17:09;;;;;;;;;;;;;;;6.59;51.29;94306.72;5045225;28;20457;-72
2023/11/06 11:19:35;;;;;;;;;;;;;;;6.04;51.69;94316.72;5040256;28;20358;-72
2023/11/06 11:22:03;;;;;;;;;;;;;;;6.63;49.62;94302.69;5047770;28;19990;-73
2023/11/06 11:24:40;;;;;;;;;;;;;;;6.02;51.22;94324.03;5046117;28;19965;-72
2023/11/06 11:27:06;;;;;;;;;;;;;;;6.21;51.17;94310.28;5047321;28;19931;-73
2023/11/06 11:29:52;;;;;;;;;;;;;;;6.84;48.67;94295.78;5042299;28;19916;-72
2023/11/06 11:32:18;;;;;;;;;;;;;;;6.69;49.54;94313.53;5036573;28;20495;-72
2023/11/06 11:34:43;;;;;;;;;;;;;;;6.91;48.86;94305.63;5043604;28;19954;-72
2023/11/06 11:37:27;;;;;;;;;;;;;;;6.02;50.70;94302.91;5045850;28;19932;-72
2023/11/06 11:39:52;;;;;;;;;;;;;;;5.56;51.90;94307.28;5046555;28;19931;-74
2023/11/06 11:42:17;;;;;;;;;;;;;;;6.52;50.82;94299.72;5048528;28;19924;-72
2023/11/06 11:44:55;;;;;;;;;;;;;;;7.46;48.34;94305.13;5045958;28;19956;-73
2023/11/06 11:47:21;;;;;;;;;;;;;;;6.64;49.82;94325.47;5047930;28;20556;-72
2023/11/06 11:49:46;;;;;;;;;;;;;;;7.38;48.56;94308.75;5048524;28;20003;-72
2023/11/06 11:52:24;;;;;;;;;;;;;;;7.09;47.88;94310.50;5041702;28;19939;-72
2023/11/06 11:54:49;;;;;;;;;;;;;;;6.38;49.57;94315.38;5046842;28;19968;-73
2023/11/06 11:57:15;;;;;;;;;;;;;;;6.30;48.99;94323.41;5045485;28;20631;-73
2023/11/06 11:59:41;;;;;;;;;;;;;;;6.89;48.63;94309.28;5046307;28;19928;-72
2023/11/06 12:02:27;;;;;;;;;;;;;;;7.05;48.00;94311.88;5047117;28;20380;-73
2023/11/06 12:04:53;;;;;;;;;;;;;;;6.66;48.76;94313.91;5043946;28;19931;-74
2023/11/06 12:07:19;;;;;;;;;;;;;;;7.74;45.87;94304.34;5044388;28;19975;-78
2023/11/06 12:09:47;;;;;;;;;;;;;;;7.10;47.72;94306.84;5039504;28;19920;-77
2023/11/06 12:12:25;;;;;;;;;;;;;;;6.91;48.72;94314.41;5034871;28;20555;-77
2023/11/06 12:14:51;;;;;;;;;;;;;;;7.51;46.18;94308.84;5042589;28;19955;-77
2023/11/06 12:17:26;;;;;;;;;;;;;;;8.15;44.51;94327.50;5045014;28;20309;-74
2023/11/06 12:19:52;;;;;;;;;;;;;;;8.37;45.22;94311.50;5043191;28;20197;-74
2023/11/06 12:22:17;;;;;;;;;;;;;;;6.28;48.74;94320.09;5043142;28;19925;-77
2023/11/06 12:24:49;;;;;;;;;;;;;;;7.77;45.44;94307.47;5049277;28;19921;-77
2023/11/06 12:27:15;;;;;;;;;;;;;;;7.73;45.94;94306.19;5039914;28;19925;-77
2023/11/06 12:29:40;;;;;;;;;;;;;;;7.82;45.60;94306.06;5041237;28;19928;-77
2023/11/06 12:32:25;;;;;;;;;;;;;;;8.11;45.56;94310.34;5021567;28;19930;-77
2023/11/06 12:35:03;;;;;;;;;;;;;;;6.88;47.19;94335.94;5038892;28;20062;-77
2023/11/06 12:37:28;;;;;;;;;;;;;;;6.01;49.39;94311.81;5038501;28;20000;-77
2023/11/06 12:39:55;;;;;;;;;;;;;;;6.22;48.81;94325.13;5048103;28;20023;-77
2023/11/06 12:42:20;;;;;;;;;;;;;;;6.12;49.41;94306.91;5038639;28;19932;-77
2023/11/06 12:44:46;;;;;;;;;;;;;;;6.97;47.44;94324.22;5049176;28;19924;-77
2023/11/06 12:47:13;;;;;;;;;;;;;;;7.17;48.32;94302.44;5042116;28;19917;-78
2023/11/06 12:49:50;;;;;;;;;;;;;;;7.03;48.51;94296.19;5045822;28;19916;-77
2023/11/06 12:52:17;;;;;;;;;;;;;;;7.31;46.92;94305.22;5039434;28;19924;-77